sensor_id;sensor_type;location;lat;lon;timestamp;temperature;humidity
36594;DHT22;22603;47.900;8.146;2023-07-31T00:00:45;11.10;99.90
36594;DHT22;22603;47.900;8.146;2023-07-31T00:03:32;11.00;99.90
36594;DHT22;22603;47.900;8.146;2023-07-31T00:06:19;10.90;99.90
36594;DHT22;22603;47.900;8.146;2023-07-31T00:09:05;10.80;99.90
36594;DHT22;22603;47.900;8.146;2023-07-31T00:11:52;10.80;99.90
36594;DHT22;22603;47.900;8.146;2023-07-31T00:14:38;10.70;99.90
36594;DHT22;22603;47.900;8.146;2023-07-31T00:17:26;10.70;99.90
36594;DHT22;22603;47.900;8.146;2023-07-31T00:20:13;10.70;99.90
36594;DHT22;22603;47.900;8.146;2023-07-31T00:23:00;10.60;99.90
36594;DHT22;22603;47.900;8.146;2023-07-31T00:25:47;10.60;99.90
36594;DHT22;22603;47.900;8.146;2023-07-31T00:28:33;10.50;99.90
36594;DHT22;22603;47.900;8.146;2023-07-31T00:31:20;10.40;99.90
36594;DHT22;22603;47.900;8.146;2023-07-31T00:34:08;10.40;99.90
36594;DHT22;22603;47.900;8.146;2023-07-31T00:36:55;10.40;99.90
36594;DHT22;22603;47.900;8.146;2023-07-31T00:39:41;10.30;99.90
36594;DHT22;22603;47.900;8.146;2023-07-31T00:42:28;10.30;99.90
36594;DHT22;22603;47.900;8.146;2023-07-31T00:45:14;10.30;99.90
36594;DHT22;22603;47.900;8.146;2023-07-31T00:48:02;10.20;99.90
36594;DHT22;22603;47.900;8.146;2023-07-31T00:50:50;10.20;99.90
36594;DHT22;22603;47.900;8.146;2023-07-31T00:53:37;10.10;99.90
36594;DHT22;22603;47.900;8.146;2023-07-31T00:56:27;10.10;99.90
36594;DHT22;22603;47.900;8.146;2023-07-31T00:59:15;10.10;99.90
36594;DHT22;22603;47.900;8.146;2023-07-31T01:02:04;10.10;99.90
36594;DHT22;22603;47.900;8.146;2023-07-31T01:04:52;10.10;99.90
36594;DHT22;22603;47.900;8.146;2023-07-31T01:07:45;10.00;99.90
36594;DHT22;22603;47.900;8.146;2023-07-31T01:10:44;10.00;99.90
36594;DHT22;22603;47.900;8.146;2023-07-31T01:13:33;9.90;99.90
36594;DHT22;22603;47.900;8.146;2023-07-31T01:16:20;9.90;99.90
36594;DHT22;22603;47.900;8.146;2023-07-31T01:19:08;9.90;99.90
36594;DHT22;22603;47.900;8.146;2023-07-31T01:22:27;9.90;99.90
36594;DHT22;22603;47.900;8.146;2023-07-31T01:25:32;9.80;99.90
36594;DHT22;22603;47.900;8.146;2023-07-31T01:28:33;9.70;99.90
36594;DHT22;22603;47.900;8.146;2023-07-31T01:31:22;9.70;99.90
36594;DHT22;22603;47.900;8.146;2023-07-31T01:34:10;9.60;99.90
36594;DHT22;22603;47.900;8.146;2023-07-31T01:36:57;9.70;99.90
36594;DHT22;22603;47.900;8.146;2023-07-31T01:39:44;9.60;99.90
36594;DHT22;22603;47.900;8.146;2023-07-31T01:42:30;9.60;99.90
36594;DHT22;22603;47.900;8.146;2023-07-31T01:45:19;9.60;99.90
36594;DHT22;22603;47.900;8.146;2023-07-31T01:48:06;9.60;99.90
36594;DHT22;22603;47.900;8.146;2023-07-31T01:50:52;9.50;99.90
36594;DHT22;22603;47.900;8.146;2023-07-31T01:53:39;9.50;99.90
36594;DHT22;22603;47.900;8.146;2023-07-31T01:56:26;9.50;99.90
36594;DHT22;22603;47.900;8.146;2023-07-31T01:59:13;9.50;99.90
36594;DHT22;22603;47.900;8.146;2023-07-31T02:02:00;9.50;99.90
36594;DHT22;22603;47.900;8.146;2023-07-31T02:04:47;9.50;99.90
36594;DHT22;22603;47.900;8.146;2023-07-31T02:07:34;9.50;99.90
36594;DHT22;22603;47.900;8.146;2023-07-31T02:10:21;9.40;99.90
36594;DHT22;22603;47.900;8.146;2023-07-31T02:13:07;9.40;99.90
36594;DHT22;22603;47.900;8.146;2023-07-31T02:15:54;9.30;99.90
36594;DHT22;22603;47.900;8.146;2023-07-31T02:18:42;9.30;99.90
36594;DHT22;22603;47.900;8.146;2023-07-31T02:21:29;9.20;99.90
36594;DHT22;22603;47.900;8.146;2023-07-31T02:24:15;9.20;99.90
36594;DHT22;22603;47.900;8.146;2023-07-31T02:27:02;9.20;99.90
36594;DHT22;22603;47.900;8.146;2023-07-31T02:29:49;9.20;99.90
36594;DHT22;22603;47.900;8.146;2023-07-31T02:32:36;9.10;99.90
36594;DHT22;22603;47.900;8.146;2023-07-31T02:35:24;9.10;99.90
36594;DHT22;22603;47.900;8.146;2023-07-31T02:38:10;9.10;99.90
36594;DHT22;22603;47.900;8.146;2023-07-31T02:40:57;9.10;99.90
36594;DHT22;22603;47.900;8.146;2023-07-31T02:43:43;9.00;99.90
36594;DHT22;22603;47.900;8.146;2023-07-31T02:46:30;9.00;99.90
36594;DHT22;22603;47.900;8.146;2023-07-31T02:49:17;9.00;99.90
36594;DHT22;22603;47.900;8.146;2023-07-31T02:52:05;9.00;99.90
36594;DHT22;22603;47.900;8.146;2023-07-31T02:54:52;8.90;99.90
36594;DHT22;22603;47.900;8.146;2023-07-31T02:57:39;8.90;99.90
36594;DHT22;22603;47.900;8.146;2023-07-31T03:00:25;8.90;99.90
36594;DHT22;22603;47.900;8.146;2023-07-31T03:03:12;8.90;99.90
36594;DHT22;22603;47.900;8.146;2023-07-31T03:05:59;8.90;99.90
36594;DHT22;22603;47.900;8.146;2023-07-31T03:08:46;8.80;99.90
36594;DHT22;22603;47.900;8.146;2023-07-31T03:11:33;8.80;99.90
36594;DHT22;22603;47.900;8.146;2023-07-31T03:14:20;8.80;99.90
36594;DHT22;22603;47.900;8.146;2023-07-31T03:17:07;8.80;99.90
36594;DHT22;22603;47.900;8.146;2023-07-31T03:19:54;8.80;99.90
36594;DHT22;22603;47.900;8.146;2023-07-31T03:22:40;8.80;99.90
36594;DHT22;22603;47.900;8.146;2023-07-31T03:25:28;8.70;99.90
36594;DHT22;22603;47.900;8.146;2023-07-31T03:28:15;8.70;99.90
36594;DHT22;22603;47.900;8.146;2023-07-31T03:31:02;8.70;99.90
36594;DHT22;22603;47.900;8.146;2023-07-31T03:33:49;8.80;99.90
36594;DHT22;22603;47.900;8.146;2023-07-31T03:36:36;8.80;99.90
36594;DHT22;22603;47.900;8.146;2023-07-31T03:39:23;8.80;99.90
36594;DHT22;22603;47.900;8.146;2023-07-31T03:42:11;8.80;99.90
36594;DHT22;22603;47.900;8.146;2023-07-31T03:44:58;8.80;99.90
36594;DHT22;22603;47.900;8.146;2023-07-31T03:47:45;8.80;99.90
36594;DHT22;22603;47.900;8.146;2023-07-31T03:50:32;8.90;99.90
36594;DHT22;22603;47.900;8.146;2023-07-31T03:53:18;8.90;99.90
36594;DHT22;22603;47.900;8.146;2023-07-31T03:56:05;9.00;99.90
36594;DHT22;22603;47.900;8.146;2023-07-31T03:58:53;9.00;99.90
36594;DHT22;22603;47.900;8.146;2023-07-31T04:01:40;9.10;99.90
36594;DHT22;22603;47.900;8.146;2023-07-31T04:04:27;9.10;99.90
36594;DHT22;22603;47.900;8.146;2023-07-31T04:07:13;9.00;99.90
36594;DHT22;22603;47.900;8.146;2023-07-31T04:10:00;9.10;99.90
36594;DHT22;22603;47.900;8.146;2023-07-31T04:12:47;9.20;99.90
36594;DHT22;22603;47.900;8.146;2023-07-31T04:15:34;9.20;99.90
36594;DHT22;22603;47.900;8.146;2023-07-31T04:18:22;9.20;99.90
36594;DHT22;22603;47.900;8.146;2023-07-31T04:21:08;9.30;99.90
36594;DHT22;22603;47.900;8.146;2023-07-31T04:23:55;9.40;99.90
36594;DHT22;22603;47.900;8.146;2023-07-31T04:26:43;9.40;99.90
36594;DHT22;22603;47.900;8.146;2023-07-31T04:29:30;9.50;99.90
36594;DHT22;22603;47.900;8.146;2023-07-31T04:32:18;9.60;99.90
36594;DHT22;22603;47.900;8.146;2023-07-31T04:35:06;9.60;99.90
36594;DHT22;22603;47.900;8.146;2023-07-31T04:37:53;9.70;99.90
36594;DHT22;22603;47.900;8.146;2023-07-31T04:40:39;9.80;99.90
36594;DHT22;22603;47.900;8.146;2023-07-31T04:43:26;9.90;99.90
36594;DHT22;22603;47.900;8.146;2023-07-31T04:46:12;10.00;99.90
36594;DHT22;22603;47.900;8.146;2023-07-31T04:49:03;10.10;99.90
36594;DHT22;22603;47.900;8.146;2023-07-31T04:51:50;10.30;99.90
36594;DHT22;22603;47.900;8.146;2023-07-31T04:54:36;10.40;99.90
36594;DHT22;22603;47.900;8.146;2023-07-31T04:57:23;10.40;99.90
36594;DHT22;22603;47.900;8.146;2023-07-31T05:00:10;10.50;99.90
36594;DHT22;22603;47.900;8.146;2023-07-31T05:02:57;10.70;99.90
36594;DHT22;22603;47.900;8.146;2023-07-31T05:05:45;10.90;99.90
36594;DHT22;22603;47.900;8.146;2023-07-31T05:08:32;11.00;99.90
36594;DHT22;22603;47.900;8.146;2023-07-31T05:11:19;11.30;99.90
36594;DHT22;22603;47.900;8.146;2023-07-31T05:14:06;11.40;99.90
36594;DHT22;22603;47.900;8.146;2023-07-31T05:16:53;11.60;99.90
36594;DHT22;22603;47.900;8.146;2023-07-31T05:19:40;11.60;99.90
36594;DHT22;22603;47.900;8.146;2023-07-31T05:22:31;11.70;99.90
36594;DHT22;22603;47.900;8.146;2023-07-31T05:25:17;11.70;99.90
36594;DHT22;22603;47.900;8.146;2023-07-31T05:28:04;11.90;99.90
36594;DHT22;22603;47.900;8.146;2023-07-31T05:30:51;12.00;99.90
36594;DHT22;22603;47.900;8.146;2023-07-31T05:33:37;12.10;99.90
36594;DHT22;22603;47.900;8.146;2023-07-31T05:36:24;12.40;99.90
36594;DHT22;22603;47.900;8.146;2023-07-31T05:39:12;12.40;99.90
36594;DHT22;22603;47.900;8.146;2023-07-31T05:41:59;12.60;99.90
36594;DHT22;22603;47.900;8.146;2023-07-31T05:44:46;12.80;99.90
36594;DHT22;22603;47.900;8.146;2023-07-31T05:47:33;12.80;99.90
36594;DHT22;22603;47.900;8.146;2023-07-31T05:50:20;12.90;99.90
36594;DHT22;22603;47.900;8.146;2023-07-31T05:53:07;13.10;99.90
36594;DHT22;22603;47.900;8.146;2023-07-31T05:55:57;13.30;99.90
36594;DHT22;22603;47.900;8.146;2023-07-31T05:58:43;13.40;99.90
36594;DHT22;22603;47.900;8.146;2023-07-31T06:01:30;13.40;99.90
36594;DHT22;22603;47.900;8.146;2023-07-31T06:04:21;13.40;99.90
36594;DHT22;22603;47.900;8.146;2023-07-31T06:07:10;13.50;99.90
36594;DHT22;22603;47.900;8.146;2023-07-31T06:09:56;13.60;99.90
36594;DHT22;22603;47.900;8.146;2023-07-31T06:12:49;13.60;99.90
36594;DHT22;22603;47.900;8.146;2023-07-31T06:15:36;13.60;99.90
36594;DHT22;22603;47.900;8.146;2023-07-31T06:18:23;13.70;99.90
36594;DHT22;22603;47.900;8.146;2023-07-31T06:21:10;13.80;99.90
36594;DHT22;22603;47.900;8.146;2023-07-31T06:24:02;13.80;99.90
36594;DHT22;22603;47.900;8.146;2023-07-31T06:26:49;13.90;99.90
36594;DHT22;22603;47.900;8.146;2023-07-31T06:29:38;14.00;99.90
36594;DHT22;22603;47.900;8.146;2023-07-31T06:32:25;14.10;99.90
36594;DHT22;22603;47.900;8.146;2023-07-31T06:35:12;14.20;99.90
36594;DHT22;22603;47.900;8.146;2023-07-31T06:37:59;14.40;99.90
36594;DHT22;22603;47.900;8.146;2023-07-31T06:40:47;14.40;99.90
36594;DHT22;22603;47.900;8.146;2023-07-31T06:43:35;14.50;99.90
36594;DHT22;22603;47.900;8.146;2023-07-31T06:46:23;14.40;99.90
36594;DHT22;22603;47.900;8.146;2023-07-31T06:49:11;14.50;99.90
36594;DHT22;22603;47.900;8.146;2023-07-31T06:52:01;14.50;99.90
36594;DHT22;22603;47.900;8.146;2023-07-31T06:55:00;14.50;99.90
36594;DHT22;22603;47.900;8.146;2023-07-31T06:57:48;14.50;99.90
36594;DHT22;22603;47.900;8.146;2023-07-31T07:00:35;14.40;99.90
36594;DHT22;22603;47.900;8.146;2023-07-31T07:03:23;14.50;99.90
36594;DHT22;22603;47.900;8.146;2023-07-31T07:06:10;14.60;99.90
36594;DHT22;22603;47.900;8.146;2023-07-31T07:08:57;14.70;99.90
36594;DHT22;22603;47.900;8.146;2023-07-31T07:11:44;14.90;99.90
36594;DHT22;22603;47.900;8.146;2023-07-31T07:14:31;14.90;99.90
36594;DHT22;22603;47.900;8.146;2023-07-31T07:17:17;14.70;99.90
36594;DHT22;22603;47.900;8.146;2023-07-31T07:20:07;15.20;99.90
36594;DHT22;22603;47.900;8.146;2023-07-31T07:22:54;15.40;99.90
36594;DHT22;22603;47.900;8.146;2023-07-31T07:25:41;15.80;99.90
36594;DHT22;22603;47.900;8.146;2023-07-31T07:28:28;15.90;99.90
36594;DHT22;22603;47.900;8.146;2023-07-31T07:31:14;15.80;99.90
36594;DHT22;22603;47.900;8.146;2023-07-31T07:34:01;16.00;99.90
36594;DHT22;22603;47.900;8.146;2023-07-31T07:36:50;16.20;99.90
36594;DHT22;22603;47.900;8.146;2023-07-31T07:39:37;16.30;99.90
36594;DHT22;22603;47.900;8.146;2023-07-31T07:42:23;17.60;99.90
36594;DHT22;22603;47.900;8.146;2023-07-31T07:45:11;18.50;99.90
36594;DHT22;22603;47.900;8.146;2023-07-31T07:47:57;18.50;99.90
36594;DHT22;22603;47.900;8.146;2023-07-31T07:50:45;18.30;99.90
36594;DHT22;22603;47.900;8.146;2023-07-31T07:53:37;19.10;99.90
36594;DHT22;22603;47.900;8.146;2023-07-31T07:56:25;19.10;99.90
36594;DHT22;22603;47.900;8.146;2023-07-31T07:59:12;20.20;99.90
36594;DHT22;22603;47.900;8.146;2023-07-31T08:01:59;20.90;99.90
36594;DHT22;22603;47.900;8.146;2023-07-31T08:04:46;21.60;99.90
36594;DHT22;22603;47.900;8.146;2023-07-31T08:07:32;21.70;99.90
36594;DHT22;22603;47.900;8.146;2023-07-31T08:10:21;20.50;99.90
36594;DHT22;22603;47.900;8.146;2023-07-31T08:13:07;21.00;99.90
36594;DHT22;22603;47.900;8.146;2023-07-31T08:15:54;20.80;99.90
36594;DHT22;22603;47.900;8.146;2023-07-31T08:18:40;20.50;99.90
36594;DHT22;22603;47.900;8.146;2023-07-31T08:21:28;20.80;99.90
36594;DHT22;22603;47.900;8.146;2023-07-31T08:24:15;20.20;99.90
36594;DHT22;22603;47.900;8.146;2023-07-31T08:27:03;19.30;99.90
36594;DHT22;22603;47.900;8.146;2023-07-31T08:29:52;19.30;99.90
36594;DHT22;22603;47.900;8.146;2023-07-31T08:32:39;18.70;99.90
36594;DHT22;22603;47.900;8.146;2023-07-31T08:35:26;18.60;99.90
36594;DHT22;22603;47.900;8.146;2023-07-31T08:38:14;18.80;99.90
36594;DHT22;22603;47.900;8.146;2023-07-31T08:41:03;18.70;99.90
36594;DHT22;22603;47.900;8.146;2023-07-31T08:43:52;19.00;99.90
36594;DHT22;22603;47.900;8.146;2023-07-31T08:46:40;18.90;99.90
36594;DHT22;22603;47.900;8.146;2023-07-31T08:49:27;19.20;99.90
36594;DHT22;22603;47.900;8.146;2023-07-31T08:52:15;19.20;99.90
36594;DHT22;22603;47.900;8.146;2023-07-31T08:55:02;19.60;99.90
36594;DHT22;22603;47.900;8.146;2023-07-31T08:57:51;20.70;99.90
36594;DHT22;22603;47.900;8.146;2023-07-31T09:00:39;21.00;99.90
36594;DHT22;22603;47.900;8.146;2023-07-31T09:03:26;21.10;99.90
36594;DHT22;22603;47.900;8.146;2023-07-31T09:06:14;20.90;99.90
36594;DHT22;22603;47.900;8.146;2023-07-31T09:09:01;21.00;99.90
36594;DHT22;22603;47.900;8.146;2023-07-31T09:11:49;21.70;99.90
36594;DHT22;22603;47.900;8.146;2023-07-31T09:14:38;23.00;99.90
36594;DHT22;22603;47.900;8.146;2023-07-31T09:17:33;23.00;99.90
36594;DHT22;22603;47.900;8.146;2023-07-31T09:20:22;23.00;99.90
36594;DHT22;22603;47.900;8.146;2023-07-31T09:23:10;23.40;99.90
36594;DHT22;22603;47.900;8.146;2023-07-31T09:25:57;23.40;99.90
36594;DHT22;22603;47.900;8.146;2023-07-31T09:28:45;23.90;99.90
36594;DHT22;22603;47.900;8.146;2023-07-31T09:31:37;23.60;99.90
36594;DHT22;22603;47.900;8.146;2023-07-31T09:34:30;22.90;99.90
36594;DHT22;22603;47.900;8.146;2023-07-31T09:37:22;23.10;99.90
36594;DHT22;22603;47.900;8.146;2023-07-31T09:40:11;23.70;99.90
36594;DHT22;22603;47.900;8.146;2023-07-31T09:43:12;23.40;99.90
36594;DHT22;22603;47.900;8.146;2023-07-31T09:45:59;22.80;99.90
36594;DHT22;22603;47.900;8.146;2023-07-31T09:48:45;21.80;99.90
36594;DHT22;22603;47.900;8.146;2023-07-31T09:51:33;21.90;99.90
36594;DHT22;22603;47.900;8.146;2023-07-31T09:54:24;21.00;99.90
36594;DHT22;22603;47.900;8.146;2023-07-31T09:57:11;20.40;99.90
36594;DHT22;22603;47.900;8.146;2023-07-31T09:59:59;21.10;99.90
36594;DHT22;22603;47.900;8.146;2023-07-31T10:02:46;21.30;99.90
36594;DHT22;22603;47.900;8.146;2023-07-31T10:05:35;20.60;99.90
36594;DHT22;22603;47.900;8.146;2023-07-31T10:08:27;20.50;99.90
36594;DHT22;22603;47.900;8.146;2023-07-31T10:11:16;20.10;99.90
36594;DHT22;22603;47.900;8.146;2023-07-31T10:14:03;20.10;99.90
36594;DHT22;22603;47.900;8.146;2023-07-31T10:16:53;20.20;99.90
36594;DHT22;22603;47.900;8.146;2023-07-31T10:19:41;20.40;99.90
36594;DHT22;22603;47.900;8.146;2023-07-31T10:22:28;20.90;99.90
36594;DHT22;22603;47.900;8.146;2023-07-31T10:25:18;21.20;99.90
36594;DHT22;22603;47.900;8.146;2023-07-31T10:28:06;22.00;99.90
36594;DHT22;22603;47.900;8.146;2023-07-31T10:30:54;23.50;99.90
36594;DHT22;22603;47.900;8.146;2023-07-31T10:33:41;24.80;99.90
36594;DHT22;22603;47.900;8.146;2023-07-31T10:36:28;25.60;99.90
36594;DHT22;22603;47.900;8.146;2023-07-31T10:39:34;24.80;99.90
36594;DHT22;22603;47.900;8.146;2023-07-31T10:42:27;24.10;99.90
36594;DHT22;22603;47.900;8.146;2023-07-31T10:45:24;23.50;99.90
36594;DHT22;22603;47.900;8.146;2023-07-31T10:48:15;23.10;99.90
36594;DHT22;22603;47.900;8.146;2023-07-31T10:51:07;22.70;99.90
36594;DHT22;22603;47.900;8.146;2023-07-31T10:54:10;22.90;99.90
36594;DHT22;22603;47.900;8.146;2023-07-31T10:56:57;22.50;99.90
36594;DHT22;22603;47.900;8.146;2023-07-31T10:59:45;23.10;99.90
36594;DHT22;22603;47.900;8.146;2023-07-31T11:02:33;23.40;99.90
36594;DHT22;22603;47.900;8.146;2023-07-31T11:05:20;22.90;99.90
36594;DHT22;22603;47.900;8.146;2023-07-31T11:08:11;23.60;99.90
36594;DHT22;22603;47.900;8.146;2023-07-31T11:11:06;22.80;99.90
36594;DHT22;22603;47.900;8.146;2023-07-31T11:13:53;22.10;99.90
36594;DHT22;22603;47.900;8.146;2023-07-31T11:16:43;22.80;99.90
36594;DHT22;22603;47.900;8.146;2023-07-31T11:19:29;22.00;99.90
36594;DHT22;22603;47.900;8.146;2023-07-31T11:22:17;22.10;99.90
36594;DHT22;22603;47.900;8.146;2023-07-31T11:25:04;22.70;99.90
36594;DHT22;22603;47.900;8.146;2023-07-31T11:27:51;22.80;99.90
36594;DHT22;22603;47.900;8.146;2023-07-31T11:30:41;22.30;99.90
36594;DHT22;22603;47.900;8.146;2023-07-31T11:33:29;22.10;99.90
36594;DHT22;22603;47.900;8.146;2023-07-31T11:36:16;21.50;99.90
36594;DHT22;22603;47.900;8.146;2023-07-31T11:39:07;21.70;99.90
36594;DHT22;22603;47.900;8.146;2023-07-31T11:41:58;22.80;99.90
36594;DHT22;22603;47.900;8.146;2023-07-31T11:44:45;22.80;99.90
36594;DHT22;22603;47.900;8.146;2023-07-31T11:47:34;22.90;99.90
36594;DHT22;22603;47.900;8.146;2023-07-31T11:50:24;22.10;99.90
36594;DHT22;22603;47.900;8.146;2023-07-31T11:53:12;22.50;99.90
36594;DHT22;22603;47.900;8.146;2023-07-31T11:56:01;22.30;99.90
36594;DHT22;22603;47.900;8.146;2023-07-31T11:58:50;22.20;99.90
36594;DHT22;22603;47.900;8.146;2023-07-31T12:01:38;22.30;99.90
36594;DHT22;22603;47.900;8.146;2023-07-31T12:04:25;22.90;99.90
36594;DHT22;22603;47.900;8.146;2023-07-31T12:07:13;23.70;99.90
36594;DHT22;22603;47.900;8.146;2023-07-31T12:10:00;24.00;99.90
36594;DHT22;22603;47.900;8.146;2023-07-31T12:12:59;22.90;99.90
36594;DHT22;22603;47.900;8.146;2023-07-31T12:15:47;23.30;99.90
36594;DHT22;22603;47.900;8.146;2023-07-31T12:18:36;22.60;99.90
36594;DHT22;22603;47.900;8.146;2023-07-31T12:21:23;22.50;99.90
36594;DHT22;22603;47.900;8.146;2023-07-31T12:24:11;24.00;99.90
36594;DHT22;22603;47.900;8.146;2023-07-31T12:26:58;24.30;99.90
36594;DHT22;22603;47.900;8.146;2023-07-31T12:29:45;24.40;99.90
36594;DHT22;22603;47.900;8.146;2023-07-31T12:32:32;24.40;99.90
36594;DHT22;22603;47.900;8.146;2023-07-31T12:35:19;25.00;99.90
36594;DHT22;22603;47.900;8.146;2023-07-31T12:38:06;25.40;99.90
36594;DHT22;22603;47.900;8.146;2023-07-31T12:40:53;24.00;99.90
36594;DHT22;22603;47.900;8.146;2023-07-31T12:43:42;24.00;99.90
36594;DHT22;22603;47.900;8.146;2023-07-31T12:46:29;23.90;99.90
36594;DHT22;22603;47.900;8.146;2023-07-31T12:49:16;24.20;99.90
36594;DHT22;22603;47.900;8.146;2023-07-31T12:52:04;24.10;99.90
36594;DHT22;22603;47.900;8.146;2023-07-31T12:54:51;23.50;99.90
36594;DHT22;22603;47.900;8.146;2023-07-31T12:57:39;23.20;99.90
36594;DHT22;22603;47.900;8.146;2023-07-31T13:00:26;22.70;99.90
36594;DHT22;22603;47.900;8.146;2023-07-31T13:03:13;22.90;99.90
36594;DHT22;22603;47.900;8.146;2023-07-31T13:06:00;23.10;99.90
36594;DHT22;22603;47.900;8.146;2023-07-31T13:08:47;23.40;99.90
36594;DHT22;22603;47.900;8.146;2023-07-31T13:11:34;23.40;99.90
36594;DHT22;22603;47.900;8.146;2023-07-31T13:14:22;24.20;99.90
36594;DHT22;22603;47.900;8.146;2023-07-31T13:17:09;24.80;99.90
36594;DHT22;22603;47.900;8.146;2023-07-31T13:19:55;25.00;99.90
36594;DHT22;22603;47.900;8.146;2023-07-31T13:22:42;24.90;99.90
36594;DHT22;22603;47.900;8.146;2023-07-31T13:25:31;24.40;99.90
36594;DHT22;22603;47.900;8.146;2023-07-31T13:28:18;24.10;99.90
36594;DHT22;22603;47.900;8.146;2023-07-31T13:31:06;23.10;99.90
36594;DHT22;22603;47.900;8.146;2023-07-31T13:33:53;22.50;99.90
36594;DHT22;22603;47.900;8.146;2023-07-31T13:36:40;22.20;99.90
36594;DHT22;22603;47.900;8.146;2023-07-31T13:39:27;22.10;99.90
36594;DHT22;22603;47.900;8.146;2023-07-31T13:42:13;21.60;99.90
36594;DHT22;22603;47.900;8.146;2023-07-31T13:45:00;22.20;99.90
36594;DHT22;22603;47.900;8.146;2023-07-31T13:47:53;22.60;99.90
36594;DHT22;22603;47.900;8.146;2023-07-31T13:50:40;22.80;99.90
36594;DHT22;22603;47.900;8.146;2023-07-31T13:53:27;23.00;99.90
36594;DHT22;22603;47.900;8.146;2023-07-31T13:56:14;23.40;99.90
36594;DHT22;22603;47.900;8.146;2023-07-31T13:59:00;23.00;99.90
36594;DHT22;22603;47.900;8.146;2023-07-31T14:01:47;22.70;99.90
36594;DHT22;22603;47.900;8.146;2023-07-31T14:04:35;22.60;99.90
36594;DHT22;22603;47.900;8.146;2023-07-31T14:07:22;23.00;99.90
36594;DHT22;22603;47.900;8.146;2023-07-31T14:10:09;23.50;99.90
36594;DHT22;22603;47.900;8.146;2023-07-31T14:12:58;24.50;99.90
36594;DHT22;22603;47.900;8.146;2023-07-31T14:15:45;23.90;99.90
36594;DHT22;22603;47.900;8.146;2023-07-31T14:18:32;24.10;99.90
36594;DHT22;22603;47.900;8.146;2023-07-31T14:21:20;24.20;99.90
36594;DHT22;22603;47.900;8.146;2023-07-31T14:24:07;23.40;99.90
36594;DHT22;22603;47.900;8.146;2023-07-31T14:26:54;22.80;99.90
36594;DHT22;22603;47.900;8.146;2023-07-31T14:29:41;22.80;99.90
36594;DHT22;22603;47.900;8.146;2023-07-31T14:32:28;23.40;99.90
36594;DHT22;22603;47.900;8.146;2023-07-31T14:35:14;22.80;99.90
36594;DHT22;22603;47.900;8.146;2023-07-31T14:38:02;22.60;99.90
36594;DHT22;22603;47.900;8.146;2023-07-31T14:40:49;22.50;99.90
36594;DHT22;22603;47.900;8.146;2023-07-31T14:43:36;22.10;99.90
36594;DHT22;22603;47.900;8.146;2023-07-31T14:46:22;22.20;99.90
36594;DHT22;22603;47.900;8.146;2023-07-31T14:49:09;22.60;99.90
36594;DHT22;22603;47.900;8.146;2023-07-31T14:51:56;22.90;99.90
36594;DHT22;22603;47.900;8.146;2023-07-31T14:54:45;22.80;99.90
36594;DHT22;22603;47.900;8.146;2023-07-31T14:57:33;22.80;99.90
36594;DHT22;22603;47.900;8.146;2023-07-31T15:00:20;22.40;99.90
36594;DHT22;22603;47.900;8.146;2023-07-31T15:03:07;22.40;99.90
36594;DHT22;22603;47.900;8.146;2023-07-31T15:05:54;22.60;99.90
36594;DHT22;22603;47.900;8.146;2023-07-31T15:08:42;22.90;99.90
36594;DHT22;22603;47.900;8.146;2023-07-31T15:11:30;23.20;99.90
36594;DHT22;22603;47.900;8.146;2023-07-31T15:14:17;23.10;99.90
36594;DHT22;22603;47.900;8.146;2023-07-31T15:17:04;22.90;99.90
36594;DHT22;22603;47.900;8.146;2023-07-31T15:19:51;22.90;99.90
36594;DHT22;22603;47.900;8.146;2023-07-31T15:22:38;23.40;99.90
36594;DHT22;22603;47.900;8.146;2023-07-31T15:25:24;23.90;99.90
36594;DHT22;22603;47.900;8.146;2023-07-31T15:28:12;24.00;99.90
36594;DHT22;22603;47.900;8.146;2023-07-31T15:31:01;23.70;99.90
36594;DHT22;22603;47.900;8.146;2023-07-31T15:33:48;23.80;99.90
36594;DHT22;22603;47.900;8.146;2023-07-31T15:36:35;24.00;99.90
36594;DHT22;22603;47.900;8.146;2023-07-31T15:39:22;23.10;99.90
36594;DHT22;22603;47.900;8.146;2023-07-31T15:42:08;23.10;99.90
36594;DHT22;22603;47.900;8.146;2023-07-31T15:44:56;23.00;99.90
36594;DHT22;22603;47.900;8.146;2023-07-31T15:47:44;22.80;99.90
36594;DHT22;22603;47.900;8.146;2023-07-31T15:50:30;22.70;99.90
36594;DHT22;22603;47.900;8.146;2023-07-31T15:53:17;22.60;99.90
36594;DHT22;22603;47.900;8.146;2023-07-31T15:56:04;22.70;99.90
36594;DHT22;22603;47.900;8.146;2023-07-31T15:58:51;22.60;99.90
36594;DHT22;22603;47.900;8.146;2023-07-31T16:01:38;22.50;99.90
36594;DHT22;22603;47.900;8.146;2023-07-31T16:04:25;22.30;99.90
36594;DHT22;22603;47.900;8.146;2023-07-31T16:07:12;22.20;99.90
36594;DHT22;22603;47.900;8.146;2023-07-31T16:09:58;22.20;99.90
36594;DHT22;22603;47.900;8.146;2023-07-31T16:12:45;22.40;99.90
36594;DHT22;22603;47.900;8.146;2023-07-31T16:15:31;22.10;99.90
36594;DHT22;22603;47.900;8.146;2023-07-31T16:18:19;21.50;99.90
36594;DHT22;22603;47.900;8.146;2023-07-31T16:21:06;21.20;99.90
36594;DHT22;22603;47.900;8.146;2023-07-31T16:23:53;21.30;99.90
36594;DHT22;22603;47.900;8.146;2023-07-31T16:26:39;21.40;99.90
36594;DHT22;22603;47.900;8.146;2023-07-31T16:29:26;21.30;99.90
36594;DHT22;22603;47.900;8.146;2023-07-31T16:32:13;21.00;99.90
36594;DHT22;22603;47.900;8.146;2023-07-31T16:35:02;21.30;99.90
36594;DHT22;22603;47.900;8.146;2023-07-31T16:37:48;21.10;99.90
36594;DHT22;22603;47.900;8.146;2023-07-31T16:40:35;20.80;99.90
36594;DHT22;22603;47.900;8.146;2023-07-31T16:43:22;20.50;99.90
36594;DHT22;22603;47.900;8.146;2023-07-31T16:46:08;20.60;99.90
36594;DHT22;22603;47.900;8.146;2023-07-31T16:48:56;20.40;99.90
36594;DHT22;22603;47.900;8.146;2023-07-31T16:51:44;20.30;99.90
36594;DHT22;22603;47.900;8.146;2023-07-31T16:54:31;20.20;99.90
36594;DHT22;22603;47.900;8.146;2023-07-31T16:57:18;20.50;99.90
36594;DHT22;22603;47.900;8.146;2023-07-31T17:00:07;20.50;99.90
36594;DHT22;22603;47.900;8.146;2023-07-31T17:02:55;20.70;99.90
36594;DHT22;22603;47.900;8.146;2023-07-31T17:05:42;20.60;99.90
36594;DHT22;22603;47.900;8.146;2023-07-31T17:08:32;20.40;99.90
36594;DHT22;22603;47.900;8.146;2023-07-31T17:11:20;20.40;99.90
36594;DHT22;22603;47.900;8.146;2023-07-31T17:14:07;20.40;99.90
36594;DHT22;22603;47.900;8.146;2023-07-31T17:16:54;20.40;99.90
36594;DHT22;22603;47.900;8.146;2023-07-31T17:19:40;20.50;99.90
36594;DHT22;22603;47.900;8.146;2023-07-31T17:22:27;20.30;99.90
36594;DHT22;22603;47.900;8.146;2023-07-31T17:25:34;20.40;99.90
36594;DHT22;22603;47.900;8.146;2023-07-31T17:28:20;20.20;99.90
36594;DHT22;22603;47.900;8.146;2023-07-31T17:31:07;20.10;99.90
36594;DHT22;22603;47.900;8.146;2023-07-31T17:33:54;20.30;99.90
36594;DHT22;22603;47.900;8.146;2023-07-31T17:36:41;20.10;99.90
36594;DHT22;22603;47.900;8.146;2023-07-31T17:39:28;20.20;99.90
36594;DHT22;22603;47.900;8.146;2023-07-31T17:42:16;20.20;99.90
36594;DHT22;22603;47.900;8.146;2023-07-31T17:45:04;20.10;99.90